createdAt,value
2022-12-16T00:01:13.645Z,22.37
2022-12-16T00:03:48.150Z,21.03
2022-12-16T00:06:17.434Z,21.23
2022-12-16T00:08:45.996Z,20.80
2022-12-16T00:11:16.320Z,26.63
2022-12-16T00:13:45.277Z,22.63
2022-12-16T00:16:16.022Z,23.97
2022-12-16T00:18:48.125Z,20.40
2022-12-16T00:21:19.374Z,18.73
2022-12-16T00:23:48.372Z,21.80
2022-12-16T00:26:18.605Z,23.60
2022-12-16T00:28:47.475Z,20.30
2022-12-16T00:31:16.581Z,20.50
2022-12-16T00:33:47.376Z,21.70
2022-12-16T00:36:17.441Z,21.93
2022-12-16T00:38:45.778Z,19.50
2022-12-16T00:41:14.581Z,19.40
2022-12-16T00:43:43.720Z,15.17
2022-12-16T00:46:12.804Z,21.03
2022-12-16T00:48:42.349Z,17.70
2022-12-16T00:51:13.692Z,19.20
2022-12-16T00:53:45.529Z,20.60
2022-12-16T00:56:18.393Z,22.50
2022-12-16T00:58:46.985Z,19.70
2022-12-16T01:01:16.441Z,21.40
2022-12-16T01:03:45.808Z,20.47
2022-12-16T01:06:18.239Z,21.83
2022-12-16T01:08:49.153Z,19.80
2022-12-16T01:11:18.446Z,16.43
2022-12-16T01:13:48.307Z,21.10
2022-12-16T01:16:17.066Z,23.67
2022-12-16T01:18:45.595Z,20.33
2022-12-16T01:21:17.189Z,22.13
2022-12-16T01:23:50.469Z,18.67
2022-12-16T01:26:20.669Z,20.27
2022-12-16T01:28:50.821Z,18.57
2022-12-16T01:31:23.555Z,19.70
2022-12-16T01:33:52.929Z,18.83
2022-12-16T01:36:23.584Z,22.67
2022-12-16T01:38:52.743Z,20.77
2022-12-16T01:41:22.495Z,20.43
2022-12-16T01:43:51.062Z,22.47
2022-12-16T01:46:24.909Z,21.87
2022-12-16T01:48:59.081Z,23.73
2022-12-16T01:51:35.153Z,21.30
2022-12-16T01:54:08.526Z,24.50
2022-12-16T01:56:41.911Z,24.47
2022-12-16T01:59:12.202Z,30.00
2022-12-16T02:01:40.846Z,29.17
2022-12-16T02:04:09.431Z,34.17
2022-12-16T02:06:39.672Z,27.07
2022-12-16T02:09:11.819Z,28.27
2022-12-16T02:12:13.139Z,28.30
2022-12-16T02:14:56.051Z,31.87
2022-12-16T02:17:31.840Z,30.40
2022-12-16T02:20:32.387Z,33.67
2022-12-16T02:23:32.213Z,30.97
2022-12-16T02:26:25.200Z,31.53
2022-12-16T02:29:19.773Z,32.50
2022-12-16T02:31:58.119Z,37.70
2022-12-16T02:34:33.877Z,35.00
2022-12-16T02:37:16.483Z,38.90
2022-12-16T02:39:52.216Z,36.53
2022-12-16T02:42:28.029Z,34.47
2022-12-16T02:45:02.380Z,33.53
2022-12-16T02:47:33.571Z,29.83
2022-12-16T02:50:02.991Z,32.70
2022-12-16T02:52:34.756Z,31.10
2022-12-16T02:55:06.066Z,30.80
2022-12-16T02:57:59.796Z,33.57
2022-12-16T03:00:30.143Z,31.60
2022-12-16T03:03:10.268Z,32.57
2022-12-16T03:05:46.046Z,31.03
2022-12-16T03:08:19.051Z,30.03
2022-12-16T03:11:00.161Z,29.07
2022-12-16T03:13:32.865Z,35.80
2022-12-16T03:16:04.528Z,30.70
2022-12-16T03:18:36.265Z,31.73
2022-12-16T03:21:10.279Z,32.30
2022-12-16T03:23:47.718Z,31.77
2022-12-16T03:26:21.922Z,32.47
2022-12-16T03:28:54.818Z,29.33
2022-12-16T03:31:33.185Z,28.50
2022-12-16T03:34:09.017Z,23.67
2022-12-16T03:36:39.582Z,29.93
2022-12-16T03:39:10.151Z,35.20
2022-12-16T03:41:40.761Z,31.73
2022-12-16T03:44:09.880Z,33.80
2022-12-16T03:46:38.582Z,39.70
2022-12-16T03:49:08.651Z,36.53
2022-12-16T03:51:37.998Z,36.33
2022-12-16T03:54:09.115Z,33.73
2022-12-16T03:56:37.821Z,36.00
2022-12-16T03:59:06.991Z,33.77
2022-12-16T04:01:36.354Z,37.00
2022-12-16T04:04:05.515Z,33.33
2022-12-16T04:06:36.996Z,33.17
2022-12-16T04:09:07.088Z,37.10
2022-12-16T04:11:58.162Z,40.77
2022-12-16T04:14:47.806Z,34.00
2022-12-16T04:17:38.293Z,39.23
2022-12-16T04:20:25.352Z,34.07
2022-12-16T04:23:12.743Z,38.57
2022-12-16T04:25:43.993Z,38.23
2022-12-16T04:28:12.734Z,39.23
2022-12-16T04:30:41.647Z,41.73
2022-12-16T04:33:31.007Z,42.77
2022-12-16T04:36:17.486Z,39.23
2022-12-16T04:39:05.113Z,39.77
2022-12-16T04:42:02.876Z,44.00
2022-12-16T04:44:48.943Z,41.80
2022-12-16T04:47:37.625Z,36.43
2022-12-16T04:50:24.418Z,47.07
2022-12-16T04:53:10.442Z,37.97
2022-12-16T04:56:03.898Z,46.53
2022-12-16T04:58:50.210Z,49.80
2022-12-16T05:01:18.392Z,45.93
2022-12-16T05:04:03.977Z,38.93
2022-12-16T05:06:49.575Z,41.40
2022-12-16T05:09:34.973Z,42.03
2022-12-16T05:12:22.376Z,47.07
2022-12-16T05:15:07.930Z,43.47
2022-12-16T05:17:53.563Z,45.60
2022-12-16T05:20:40.393Z,47.87
2022-12-16T05:23:31.485Z,48.97
2022-12-16T05:26:17.537Z,50.83
2022-12-16T05:29:04.246Z,43.37
2022-12-16T05:31:50.239Z,48.20
2022-12-16T05:34:35.640Z,47.20
2022-12-16T05:37:21.428Z,43.70
2022-12-16T05:40:07.181Z,43.70
2022-12-16T05:42:52.620Z,46.27
2022-12-16T05:45:39.769Z,42.13
2022-12-16T05:48:25.385Z,46.07
2022-12-16T05:51:10.860Z,52.07
2022-12-16T05:53:56.382Z,50.13
2022-12-16T05:56:41.866Z,50.97
2022-12-16T05:59:27.493Z,43.23
2022-12-16T06:02:14.672Z,48.43
2022-12-16T06:05:00.135Z,46.23
2022-12-16T06:07:45.876Z,53.17
2022-12-16T06:10:31.967Z,52.00
2022-12-16T06:13:17.346Z,49.27
2022-12-16T06:16:08.610Z,56.60
2022-12-16T06:18:56.453Z,49.73
2022-12-16T06:21:43.534Z,54.23
2022-12-16T06:24:29.264Z,53.33
2022-12-16T06:27:14.624Z,51.00
2022-12-16T06:30:00.085Z,53.37
2022-12-16T06:32:45.740Z,41.27
2022-12-16T06:35:32.567Z,56.97
2022-12-16T06:38:18.157Z,47.07
2022-12-16T06:41:05.784Z,45.90
2022-12-16T06:43:51.171Z,46.80
2022-12-16T06:46:36.649Z,53.07
2022-12-16T06:49:22.102Z,53.07
2022-12-16T06:52:08.825Z,59.87
2022-12-16T06:54:54.655Z,52.37
2022-12-16T06:57:40.336Z,51.47
2022-12-16T07:00:27.259Z,49.27
2022-12-16T07:03:12.681Z,46.50
2022-12-16T07:05:58.218Z,55.93
2022-12-16T07:08:45.129Z,55.93
2022-12-16T07:11:30.696Z,56.00
2022-12-16T07:14:16.235Z,60.80
2022-12-16T07:17:01.841Z,52.20
2022-12-16T07:19:47.248Z,53.67
2022-12-16T07:22:32.791Z,50.40
2022-12-16T07:25:19.790Z,58.07
2022-12-16T07:28:09.463Z,61.70
2022-12-16T07:31:01.213Z,51.67
2022-12-16T07:33:46.769Z,62.00
2022-12-16T07:36:32.903Z,55.60
2022-12-16T07:39:18.359Z,55.87
2022-12-16T07:42:05.152Z,64.00
2022-12-16T07:44:50.904Z,55.20
2022-12-16T07:47:37.194Z,51.90
2022-12-16T07:50:23.020Z,49.83
2022-12-16T07:53:13.464Z,55.20
2022-12-16T07:55:59.275Z,57.53
2022-12-16T07:58:46.863Z,56.90
2022-12-16T08:01:32.796Z,51.90
2022-12-16T08:04:18.911Z,54.27
2022-12-16T08:07:04.743Z,62.47
2022-12-16T08:09:50.833Z,53.70
2022-12-16T08:12:36.723Z,46.17
2022-12-16T08:15:25.208Z,50.83
2022-12-16T08:18:12.425Z,55.60
2022-12-16T08:20:58.067Z,56.43
2022-12-16T08:23:44.061Z,54.73
2022-12-16T08:26:29.637Z,61.23
2022-12-16T08:29:42.737Z,53.47
2022-12-16T08:32:22.703Z,61.00
2022-12-16T08:35:08.205Z,58.70
2022-12-16T08:37:54.115Z,49.90
2022-12-16T08:40:40.073Z,55.80
2022-12-16T08:43:25.954Z,62.83
2022-12-16T08:46:12.551Z,63.87
2022-12-16T08:49:00.134Z,48.63
2022-12-16T08:51:45.981Z,54.80
2022-12-16T08:54:31.952Z,56.97
2022-12-16T08:57:17.285Z,52.67
2022-12-16T09:00:02.858Z,53.20
2022-12-16T09:02:48.470Z,55.90
2022-12-16T09:05:35.489Z,53.70
2022-12-16T09:08:22.805Z,51.77
2022-12-16T09:11:08.894Z,54.00
2022-12-16T09:13:54.669Z,55.73
2022-12-16T09:16:40.709Z,50.13
2022-12-16T09:19:26.641Z,51.30
2022-12-16T09:22:13.866Z,45.87
2022-12-16T09:24:59.150Z,53.60
2022-12-16T09:27:44.966Z,47.87
2022-12-16T09:30:31.322Z,49.00
2022-12-16T09:33:16.816Z,49.00
2022-12-16T09:36:02.535Z,48.80
2022-12-16T09:38:49.373Z,47.37
2022-12-16T09:41:56.620Z,50.90
2022-12-16T09:45:01.686Z,49.00
2022-12-16T09:47:57.450Z,45.27
2022-12-16T09:50:55.091Z,52.40
2022-12-16T09:53:42.062Z,44.53
2022-12-16T09:56:36.155Z,47.70
2022-12-16T09:59:29.547Z,46.07
2022-12-16T10:02:15.290Z,41.60
2022-12-16T10:05:03.130Z,46.30
2022-12-16T10:07:53.203Z,44.67
2022-12-16T10:10:47.544Z,44.97
2022-12-16T10:13:40.909Z,45.10
2022-12-16T10:16:32.667Z,46.43
2022-12-16T10:19:26.344Z,44.30
2022-12-16T10:22:18.597Z,44.13
2022-12-16T10:25:11.944Z,41.70
2022-12-16T10:28:02.571Z,46.23
2022-12-16T10:30:50.331Z,46.07
2022-12-16T10:33:38.956Z,47.13
2022-12-16T10:36:32.754Z,47.80
2022-12-16T10:39:22.043Z,47.23
2022-12-16T10:42:11.812Z,52.83
2022-12-16T10:45:06.667Z,50.50
2022-12-16T10:47:53.948Z,46.97
2022-12-16T10:50:40.606Z,42.93
2022-12-16T10:53:32.676Z,49.60
2022-12-16T10:56:32.061Z,49.47
2022-12-16T10:59:22.829Z,37.93
2022-12-16T11:02:16.438Z,49.20
2022-12-16T11:05:04.608Z,44.67
2022-12-16T11:07:52.913Z,50.90
2022-12-16T11:10:53.686Z,45.97
2022-12-16T11:13:44.420Z,46.90
2022-12-16T11:16:35.877Z,45.90
2022-12-16T11:19:21.729Z,45.07
2022-12-16T11:22:05.271Z,46.77
2022-12-16T11:24:51.486Z,45.90
2022-12-16T11:27:43.281Z,44.10
2022-12-16T11:30:49.253Z,42.57
2022-12-16T11:33:40.423Z,49.20
2022-12-16T11:36:33.012Z,47.30
2022-12-16T11:39:20.896Z,44.43
2022-12-16T11:42:09.044Z,44.67
2022-12-16T11:45:01.239Z,50.43
2022-12-16T11:48:11.021Z,55.70
2022-12-16T11:50:59.961Z,40.80
2022-12-16T11:53:52.309Z,45.37
2022-12-16T11:56:43.701Z,43.17
2022-12-16T11:59:40.126Z,50.83
2022-12-16T12:02:34.020Z,52.00
2022-12-16T12:05:19.878Z,40.63
2022-12-16T12:08:12.823Z,47.33
2022-12-16T12:11:09.925Z,46.77
2022-12-16T12:14:08.519Z,39.87
2022-12-16T12:17:06.930Z,43.63
2022-12-16T12:20:03.032Z,39.57
2022-12-16T12:22:54.234Z,42.17
2022-12-16T12:25:46.998Z,40.07
2022-12-16T12:28:54.173Z,43.20
2022-12-16T12:31:52.976Z,41.90
2022-12-16T12:34:44.191Z,47.17
2022-12-16T12:37:38.974Z,43.20
2022-12-16T12:40:37.896Z,44.93
2022-12-16T12:43:32.237Z,43.70
2022-12-16T12:46:26.692Z,45.10
2022-12-16T12:49:19.452Z,39.57
2022-12-16T12:52:17.285Z,44.00
2022-12-16T12:55:11.114Z,43.00
2022-12-16T12:57:58.417Z,42.47
2022-12-16T13:00:50.639Z,41.83
2022-12-16T13:03:47.468Z,49.10
2022-12-16T13:06:36.785Z,43.20
2022-12-16T13:09:40.645Z,42.23
2022-12-16T13:12:48.777Z,39.93
2022-12-16T13:15:51.974Z,41.30
2022-12-16T13:18:47.195Z,42.07
2022-12-16T13:22:05.457Z,38.50
2022-12-16T13:25:00.918Z,39.23
2022-12-16T13:27:48.547Z,44.70
2022-12-16T13:30:41.301Z,46.43
2022-12-16T13:33:42.308Z,38.73
2022-12-16T13:36:29.524Z,43.87
2022-12-16T13:39:21.288Z,44.10
2022-12-16T13:42:16.221Z,43.20
2022-12-16T13:45:18.184Z,44.40
2022-12-16T13:48:22.649Z,42.87
2022-12-16T13:51:18.051Z,41.63
2022-12-16T13:54:08.111Z,43.63
2022-12-16T13:56:59.380Z,45.77
2022-12-16T13:59:49.625Z,45.33
2022-12-16T14:02:46.027Z,45.73
2022-12-16T14:05:37.671Z,42.40
2022-12-16T14:08:27.782Z,44.10
2022-12-16T14:11:19.563Z,39.70
2022-12-16T14:14:12.906Z,44.67
2022-12-16T14:17:09.030Z,37.47
2022-12-16T14:20:08.579Z,40.23
2022-12-16T14:23:10.657Z,36.57
2022-12-16T14:25:58.703Z,43.70
2022-12-16T14:28:47.427Z,45.07
2022-12-16T14:31:39.771Z,40.23
2022-12-16T14:34:33.683Z,42.00
2022-12-16T14:37:24.107Z,45.17
2022-12-16T14:40:11.373Z,39.33
2022-12-16T14:42:59.924Z,39.33
2022-12-16T14:45:48.887Z,42.03
2022-12-16T14:48:49.250Z,39.87
2022-12-16T14:51:44.665Z,45.27
2022-12-16T14:54:45.176Z,36.97
2022-12-16T14:57:36.329Z,41.60
2022-12-16T15:00:32.417Z,38.37
2022-12-16T15:03:23.285Z,34.20
2022-12-16T15:06:11.025Z,39.87
2022-12-16T15:09:06.540Z,38.23
2022-12-16T15:11:52.649Z,42.13
2022-12-16T15:14:46.941Z,45.73
2022-12-16T15:17:40.931Z,42.90
2022-12-16T15:20:37.728Z,40.17
2022-12-16T15:23:34.375Z,40.53
2022-12-16T15:26:20.186Z,43.40
2022-12-16T15:29:09.129Z,37.03
2022-12-16T15:32:02.698Z,33.57
2022-12-16T15:34:51.816Z,40.53
2022-12-16T15:38:00.645Z,33.20
2022-12-16T15:40:52.944Z,37.37
2022-12-16T15:43:46.341Z,31.03
2022-12-16T15:46:37.669Z,32.00
2022-12-16T15:49:24.420Z,34.03
2022-12-16T15:52:10.997Z,39.27
2022-12-16T15:55:09.777Z,41.80
2022-12-16T15:57:58.232Z,37.60
2022-12-16T16:00:45.948Z,34.87
2022-12-16T16:03:37.997Z,34.17
2022-12-16T16:06:32.479Z,34.67
2022-12-16T16:09:30.372Z,33.23
2022-12-16T16:12:16.132Z,35.83
2022-12-16T16:15:03.007Z,36.73
2022-12-16T16:17:48.888Z,39.43
2022-12-16T16:20:36.232Z,36.17
2022-12-16T16:23:22.458Z,34.33
2022-12-16T16:26:08.638Z,40.70
2022-12-16T16:28:54.626Z,36.40
2022-12-16T16:31:42.073Z,31.60
2022-12-16T16:34:30.210Z,35.27
2022-12-16T16:37:17.549Z,39.33
2022-12-16T16:40:03.713Z,33.30
2022-12-16T16:42:49.871Z,37.93
2022-12-16T16:45:35.920Z,34.63
2022-12-16T16:48:29.053Z,39.23
2022-12-16T16:51:23.943Z,37.87
2022-12-16T16:54:09.607Z,35.93
2022-12-16T16:57:08.122Z,33.23
2022-12-16T16:59:53.741Z,37.43
2022-12-16T17:02:42.040Z,35.33
2022-12-16T17:05:30.284Z,38.17
2022-12-16T17:08:16.786Z,36.53
2022-12-16T17:11:02.628Z,35.47
2022-12-16T17:13:48.307Z,32.07
2022-12-16T17:16:34.082Z,33.63
2022-12-16T17:19:22.665Z,32.57
2022-12-16T17:22:09.494Z,31.40
2022-12-16T17:24:55.035Z,28.90
2022-12-16T17:27:42.233Z,40.60
2022-12-16T17:30:34.173Z,33.00
2022-12-16T17:33:20.398Z,38.73
2022-12-16T17:36:07.676Z,30.57
2022-12-16T17:38:56.972Z,29.37
2022-12-16T17:41:42.596Z,39.77
2022-12-16T17:44:28.475Z,30.63
2022-12-16T17:47:14.215Z,35.33
2022-12-16T17:50:00.221Z,38.93
2022-12-16T17:52:45.942Z,31.00
2022-12-16T17:55:33.043Z,40.33
2022-12-16T17:58:18.931Z,33.73
2022-12-16T18:01:04.455Z,40.47
2022-12-16T18:03:50.092Z,36.90
2022-12-16T18:06:35.676Z,35.00
2022-12-16T18:09:21.808Z,36.40
2022-12-16T18:12:08.893Z,40.57
2022-12-16T18:14:54.676Z,40.87
2022-12-16T18:17:40.152Z,29.47
2022-12-16T18:20:26.735Z,43.53
2022-12-16T18:23:12.705Z,41.33
2022-12-16T18:25:58.698Z,40.23
2022-12-16T18:28:45.797Z,65.43
2022-12-16T18:31:31.590Z,54.73
2022-12-16T18:34:17.142Z,48.67
2022-12-16T18:37:53.299Z,57.70
2022-12-16T18:40:39.051Z,55.83
2022-12-16T18:43:25.146Z,58.67
2022-12-16T18:46:12.807Z,48.70
2022-12-16T18:48:58.728Z,39.40
2022-12-16T18:51:44.247Z,42.77
2022-12-16T18:54:29.715Z,40.27
2022-12-16T18:57:15.350Z,48.40
2022-12-16T19:00:00.933Z,55.30
2022-12-16T19:02:47.795Z,49.10
2022-12-16T19:05:33.416Z,39.30
2022-12-16T19:08:18.940Z,50.60
2022-12-16T19:11:04.506Z,39.60
2022-12-16T19:13:49.967Z,42.40
2022-12-16T19:16:35.598Z,47.13
2022-12-16T19:19:22.638Z,35.20
2022-12-16T19:22:08.210Z,42.77
2022-12-16T19:24:55.063Z,39.60
2022-12-16T19:27:42.387Z,42.47
2022-12-16T19:30:29.165Z,43.00
2022-12-16T19:33:14.611Z,40.73
2022-12-16T19:36:01.795Z,44.63
2022-12-16T19:38:47.540Z,43.90
2022-12-16T19:41:35.011Z,47.67
2022-12-16T19:44:20.407Z,37.03
2022-12-16T19:47:06.028Z,36.53
2022-12-16T19:49:51.801Z,39.47
2022-12-16T19:52:38.042Z,40.90
2022-12-16T19:55:24.425Z,42.77
2022-12-16T19:58:09.855Z,40.60
2022-12-16T20:00:55.713Z,38.77
2022-12-16T20:03:42.417Z,44.43
2022-12-16T20:06:28.221Z,36.07
2022-12-16T20:09:15.152Z,36.70
2022-12-16T20:12:01.787Z,43.03
2022-12-16T20:14:48.003Z,38.37
2022-12-16T20:17:33.841Z,38.93
2022-12-16T20:20:19.305Z,46.03
2022-12-16T20:23:04.640Z,53.00
2022-12-16T20:25:51.861Z,41.27
2022-12-16T20:28:37.646Z,39.20
2022-12-16T20:31:23.761Z,41.20
2022-12-16T20:34:11.837Z,37.00
2022-12-16T20:36:57.191Z,37.73
2022-12-16T20:39:44.660Z,37.57
2022-12-16T20:42:35.162Z,42.47
2022-12-16T20:45:21.036Z,45.20
2022-12-16T20:48:06.550Z,37.87
2022-12-16T20:50:52.078Z,40.20
2022-12-16T20:53:42.258Z,44.83
2022-12-16T20:56:28.067Z,41.23
2022-12-16T20:59:14.880Z,45.90
2022-12-16T21:02:22.790Z,45.27
2022-12-16T21:05:06.189Z,39.40
2022-12-16T21:07:52.457Z,46.50
2022-12-16T21:10:39.719Z,42.67
2022-12-16T21:13:26.473Z,39.73
2022-12-16T21:16:15.971Z,47.23
2022-12-16T21:19:01.707Z,44.50
2022-12-16T21:21:47.534Z,43.53
2022-12-16T21:24:33.682Z,46.13
2022-12-16T21:27:19.511Z,43.90
2022-12-16T21:30:05.018Z,35.63
2022-12-16T21:32:51.927Z,41.83
2022-12-16T21:35:39.471Z,42.70
2022-12-16T21:38:28.028Z,39.90
2022-12-16T21:41:14.249Z,40.33
2022-12-16T21:44:00.035Z,43.97
2022-12-16T21:46:45.964Z,37.53
2022-12-16T21:49:41.495Z,40.10
2022-12-16T21:52:27.458Z,41.40
2022-12-16T21:55:18.261Z,42.30
2022-12-16T21:58:03.857Z,35.90
2022-12-16T22:00:52.249Z,37.73
2022-12-16T22:03:41.895Z,36.40
2022-12-16T22:06:28.909Z,35.17
2022-12-16T22:09:14.472Z,37.50
2022-12-16T22:11:59.998Z,36.10
2022-12-16T22:14:45.461Z,37.67
2022-12-16T22:17:31.508Z,36.73
2022-12-16T22:20:17.690Z,38.23
2022-12-16T22:23:04.993Z,37.60
2022-12-16T22:25:50.722Z,37.27
2022-12-16T22:28:38.675Z,30.20
2022-12-16T22:31:23.566Z,36.83
2022-12-16T22:34:09.930Z,31.17
2022-12-16T22:36:56.542Z,33.87
2022-12-16T22:39:45.019Z,34.47
2022-12-16T22:42:30.870Z,34.03
2022-12-16T22:45:16.407Z,32.60
2022-12-16T22:48:01.935Z,36.20
2022-12-16T22:50:47.657Z,36.43
2022-12-16T22:53:33.357Z,31.53
2022-12-16T22:56:20.540Z,30.17
2022-12-16T22:59:07.694Z,32.80
2022-12-16T23:01:53.039Z,28.13
2022-12-16T23:04:39.566Z,29.90
2022-12-16T23:07:26.497Z,32.47
2022-12-16T23:10:12.130Z,33.47
2022-12-16T23:12:59.364Z,34.87
2022-12-16T23:15:44.873Z,34.40
2022-12-16T23:18:30.259Z,29.10
2022-12-16T23:21:15.958Z,30.10
2022-12-16T23:24:01.598Z,34.13
2022-12-16T23:26:47.371Z,31.20
2022-12-16T23:29:34.834Z,24.30
2022-12-16T23:32:28.998Z,34.17
2022-12-16T23:35:14.528Z,36.30
2022-12-16T23:38:00.230Z,36.57
2022-12-16T23:40:45.661Z,35.13
2022-12-16T23:43:36.516Z,28.83
2022-12-16T23:46:23.401Z,34.20
2022-12-16T23:49:09.036Z,29.70
2022-12-16T23:51:55.062Z,26.80
2022-12-16T23:54:42.242Z,30.03
2022-12-16T23:57:28.039Z,31.57
